Hlavní strana
METAR-TAF:

METAR-TAF

Letiště :

Džidda, Saúdská Arábie

Mezinárodní letiště Krále Abda al-Azíze

zeměpisná šířka: 21-42N, zeměpisná délka: 039-11E, výška: 15 m

Aktuální stav počasí

Zpráva byla vytvořena před 32 minutami, v 09:00 UTC
Severní vítr 10 kt
Teplota 27°C
Vlhkost vzduchu 28%
Tlak 1011 hPa
Viditelnost 10 km a více
Žádná oblačnost pod 1500 m, nevyskytují se cumulonimby.

METAR: OEJN 240900Z 01010KT CAVOK 27/07 Q1011 NOSIG

Čas: 12:32 (09:32 UTC)

Předpověď počasí

Zpráva byla vytvořena před 4 hodinami a 32 minutami, v 05:00 UTC
Předpověď platná od 24 v 06 UTC do 25 v 12 UTC
Severoseverozápadní vítr 8 kt s nárazy do 18 kt
Viditelnost: 7000 m
Skoro jasno ve výšce 4000 ft
Změna
od 24 v 18 UTC do 24 v 20 UTC
Severoseverovýchodní vítr 8 kt

TAF: OEJN 240500Z 2406/2512 34008G18KT 7000 FEW040 BECMG 2418/2420 02008KT

Stav a předpovědi počasí z více než 4 000 letišť (zprávy METAR a TAF).

Červené a žluté tečky na mapě představují dostupné meteorologické stanice.

Když kurzor umístíte na tečku, zobrazí se název stanice.

Pak kliknutím zobrazíte stav a předpověď počasí.

Chcete-li změnit mapu, kliknutím na zelené tlačítko se znaménkem +mapu přiblížíte, kliknutím na zelené tlačítko se znaménkem – mapu oddálíte a kliknutím na zelené šipky přejdete na sousední mapy.


METAR-TAF: